sensor_id;sensor_type;location;lat;lon;timestamp;P1;durP1;ratioP1;P2;durP2;ratioP2
40659;SDS011;26753;45.544;9.232;2024-02-21T00:01:40;126.70;;;71.47;;
40659;SDS011;26753;45.544;9.232;2024-02-21T00:04:05;127.72;;;71.68;;
40659;SDS011;26753;45.544;9.232;2024-02-21T00:06:31;127.88;;;72.38;;
40659;SDS011;26753;45.544;9.232;2024-02-21T00:08:57;123.28;;;69.90;;
40659;SDS011;26753;45.544;9.232;2024-02-21T00:11:23;122.43;;;67.65;;
40659;SDS011;26753;45.544;9.232;2024-02-21T00:13:49;118.28;;;65.50;;
40659;SDS011;26753;45.544;9.232;2024-02-21T00:16:18;116.55;;;62.25;;
40659;SDS011;26753;45.544;9.232;2024-02-21T00:18:44;108.88;;;59.65;;
40659;SDS011;26753;45.544;9.232;2024-02-21T00:21:12;107.57;;;58.30;;
40659;SDS011;26753;45.544;9.232;2024-02-21T00:23:43;104.93;;;57.22;;
40659;SDS011;26753;45.544;9.232;2024-02-21T00:26:11;103.50;;;56.88;;
40659;SDS011;26753;45.544;9.232;2024-02-21T00:28:38;98.18;;;54.78;;
40659;SDS011;26753;45.544;9.232;2024-02-21T00:31:07;97.50;;;53.58;;
40659;SDS011;26753;45.544;9.232;2024-02-21T00:33:32;99.60;;;52.58;;
40659;SDS011;26753;45.544;9.232;2024-02-21T00:35:58;92.20;;;51.38;;
40659;SDS011;26753;45.544;9.232;2024-02-21T00:38:24;89.32;;;50.40;;
40659;SDS011;26753;45.544;9.232;2024-02-21T00:40:50;89.47;;;49.15;;
40659;SDS011;26753;45.544;9.232;2024-02-21T00:43:16;87.53;;;49.63;;
40659;SDS011;26753;45.544;9.232;2024-02-21T00:45:41;84.80;;;47.83;;
40659;SDS011;26753;45.544;9.232;2024-02-21T00:48:07;88.45;;;48.55;;
40659;SDS011;26753;45.544;9.232;2024-02-21T00:50:35;86.03;;;47.45;;
40659;SDS011;26753;45.544;9.232;2024-02-21T00:53:04;85.95;;;47.80;;
40659;SDS011;26753;45.544;9.232;2024-02-21T00:55:35;82.57;;;47.08;;
40659;SDS011;26753;45.544;9.232;2024-02-21T00:58:01;87.85;;;47.97;;
40659;SDS011;26753;45.544;9.232;2024-02-21T01:00:27;82.22;;;46.40;;
40659;SDS011;26753;45.544;9.232;2024-02-21T01:02:52;89.97;;;47.22;;
40659;SDS011;26753;45.544;9.232;2024-02-21T01:05:18;84.25;;;46.97;;
40659;SDS011;26753;45.544;9.232;2024-02-21T01:07:45;82.65;;;46.75;;
40659;SDS011;26753;45.544;9.232;2024-02-21T01:10:10;82.45;;;47.95;;
40659;SDS011;26753;45.544;9.232;2024-02-21T01:12:36;86.30;;;47.47;;
40659;SDS011;26753;45.544;9.232;2024-02-21T01:15:02;88.78;;;48.25;;
40659;SDS011;26753;45.544;9.232;2024-02-21T01:17:29;90.20;;;51.08;;
40659;SDS011;26753;45.544;9.232;2024-02-21T01:19:54;91.57;;;49.53;;
40659;SDS011;26753;45.544;9.232;2024-02-21T01:22:20;93.00;;;49.60;;
40659;SDS011;26753;45.544;9.232;2024-02-21T01:24:46;90.18;;;48.67;;
40659;SDS011;26753;45.544;9.232;2024-02-21T01:27:11;91.85;;;50.30;;
40659;SDS011;26753;45.544;9.232;2024-02-21T01:29:37;90.65;;;49.60;;
40659;SDS011;26753;45.544;9.232;2024-02-21T01:32:03;86.80;;;48.80;;
40659;SDS011;26753;45.544;9.232;2024-02-21T01:34:29;86.88;;;48.70;;
40659;SDS011;26753;45.544;9.232;2024-02-21T01:36:55;90.97;;;49.28;;
40659;SDS011;26753;45.544;9.232;2024-02-21T01:39:20;83.03;;;47.50;;
40659;SDS011;26753;45.544;9.232;2024-02-21T01:41:46;89.38;;;49.83;;
40659;SDS011;26753;45.544;9.232;2024-02-21T01:44:12;90.47;;;47.58;;
40659;SDS011;26753;45.544;9.232;2024-02-21T01:46:38;84.85;;;47.28;;
40659;SDS011;26753;45.544;9.232;2024-02-21T01:49:04;85.80;;;47.65;;
40659;SDS011;26753;45.544;9.232;2024-02-21T01:51:31;89.28;;;48.08;;
40659;SDS011;26753;45.544;9.232;2024-02-21T01:53:57;83.68;;;46.35;;
40659;SDS011;26753;45.544;9.232;2024-02-21T01:56:23;82.68;;;45.75;;
40659;SDS011;26753;45.544;9.232;2024-02-21T01:58:49;86.55;;;45.42;;
40659;SDS011;26753;45.544;9.232;2024-02-21T02:01:16;79.68;;;43.92;;
40659;SDS011;26753;45.544;9.232;2024-02-21T02:03:44;79.85;;;43.75;;
40659;SDS011;26753;45.544;9.232;2024-02-21T02:06:11;77.65;;;43.53;;
40659;SDS011;26753;45.544;9.232;2024-02-21T02:08:37;77.03;;;43.50;;
40659;SDS011;26753;45.544;9.232;2024-02-21T02:11:03;70.03;;;41.28;;
40659;SDS011;26753;45.544;9.232;2024-02-21T02:13:29;81.03;;;43.70;;
40659;SDS011;26753;45.544;9.232;2024-02-21T02:15:55;73.38;;;40.63;;
40659;SDS011;26753;45.544;9.232;2024-02-21T02:18:21;76.15;;;41.35;;
40659;SDS011;26753;45.544;9.232;2024-02-21T02:20:52;75.68;;;39.72;;
40659;SDS011;26753;45.544;9.232;2024-02-21T02:25:50;69.05;;;38.95;;
40659;SDS011;26753;45.544;9.232;2024-02-21T02:28:19;77.03;;;40.17;;
40659;SDS011;26753;45.544;9.232;2024-02-21T02:30:46;76.75;;;42.90;;
40659;SDS011;26753;45.544;9.232;2024-02-21T02:33:14;79.95;;;44.53;;
40659;SDS011;26753;45.544;9.232;2024-02-21T02:35:42;81.53;;;45.28;;
40659;SDS011;26753;45.544;9.232;2024-02-21T02:38:08;83.10;;;44.75;;
40659;SDS011;26753;45.544;9.232;2024-02-21T02:40:38;88.13;;;46.42;;
40659;SDS011;26753;45.544;9.232;2024-02-21T02:43:06;88.72;;;46.30;;
40659;SDS011;26753;45.544;9.232;2024-02-21T02:45:32;88.43;;;46.65;;
40659;SDS011;26753;45.544;9.232;2024-02-21T02:48:00;90.32;;;48.00;;
40659;SDS011;26753;45.544;9.232;2024-02-21T02:50:26;94.78;;;48.05;;
40659;SDS011;26753;45.544;9.232;2024-02-21T02:52:53;92.50;;;48.05;;
40659;SDS011;26753;45.544;9.232;2024-02-21T02:55:19;87.95;;;47.60;;
40659;SDS011;26753;45.544;9.232;2024-02-21T02:57:45;90.70;;;47.25;;
40659;SDS011;26753;45.544;9.232;2024-02-21T03:00:11;88.78;;;46.63;;
40659;SDS011;26753;45.544;9.232;2024-02-21T03:02:38;87.97;;;46.72;;
40659;SDS011;26753;45.544;9.232;2024-02-21T03:05:15;86.40;;;46.78;;
40659;SDS011;26753;45.544;9.232;2024-02-21T03:07:44;86.78;;;47.33;;
40659;SDS011;26753;45.544;9.232;2024-02-21T03:10:10;91.72;;;47.08;;
40659;SDS011;26753;45.544;9.232;2024-02-21T03:12:37;93.20;;;48.30;;
40659;SDS011;26753;45.544;9.232;2024-02-21T03:15:03;93.65;;;48.17;;
40659;SDS011;26753;45.544;9.232;2024-02-21T03:17:30;99.53;;;50.72;;
40659;SDS011;26753;45.544;9.232;2024-02-21T03:19:57;94.93;;;49.30;;
40659;SDS011;26753;45.544;9.232;2024-02-21T03:22:23;86.63;;;46.53;;
40659;SDS011;26753;45.544;9.232;2024-02-21T03:24:49;86.30;;;45.35;;
40659;SDS011;26753;45.544;9.232;2024-02-21T03:27:15;83.97;;;46.05;;
40659;SDS011;26753;45.544;9.232;2024-02-21T03:29:41;83.80;;;44.45;;
40659;SDS011;26753;45.544;9.232;2024-02-21T03:32:06;83.75;;;45.00;;
40659;SDS011;26753;45.544;9.232;2024-02-21T03:34:32;86.90;;;45.17;;
40659;SDS011;26753;45.544;9.232;2024-02-21T03:36:58;84.07;;;44.45;;
40659;SDS011;26753;45.544;9.232;2024-02-21T03:39:24;87.00;;;45.83;;
40659;SDS011;26753;45.544;9.232;2024-02-21T03:41:50;89.85;;;46.08;;
40659;SDS011;26753;45.544;9.232;2024-02-21T03:44:16;88.40;;;45.78;;
40659;SDS011;26753;45.544;9.232;2024-02-21T03:46:42;91.35;;;47.55;;
40659;SDS011;26753;45.544;9.232;2024-02-21T03:49:11;94.28;;;48.92;;
40659;SDS011;26753;45.544;9.232;2024-02-21T03:51:39;95.03;;;48.55;;
40659;SDS011;26753;45.544;9.232;2024-02-21T03:54:05;97.90;;;49.58;;
40659;SDS011;26753;45.544;9.232;2024-02-21T03:56:31;95.13;;;49.53;;
40659;SDS011;26753;45.544;9.232;2024-02-21T03:58:57;92.88;;;48.85;;
40659;SDS011;26753;45.544;9.232;2024-02-21T04:01:26;93.88;;;47.80;;
40659;SDS011;26753;45.544;9.232;2024-02-21T04:03:52;93.38;;;47.45;;
40659;SDS011;26753;45.544;9.232;2024-02-21T04:06:17;95.53;;;47.83;;
40659;SDS011;26753;45.544;9.232;2024-02-21T04:08:46;89.00;;;45.88;;
40659;SDS011;26753;45.544;9.232;2024-02-21T04:11:12;84.10;;;45.10;;
40659;SDS011;26753;45.544;9.232;2024-02-21T04:13:38;91.75;;;47.47;;
40659;SDS011;26753;45.544;9.232;2024-02-21T04:16:04;91.47;;;46.92;;
40659;SDS011;26753;45.544;9.232;2024-02-21T04:18:30;94.43;;;48.03;;
40659;SDS011;26753;45.544;9.232;2024-02-21T04:20:56;84.10;;;42.42;;
40659;SDS011;26753;45.544;9.232;2024-02-21T04:23:22;81.45;;;41.53;;
40659;SDS011;26753;45.544;9.232;2024-02-21T04:25:48;79.40;;;41.65;;
40659;SDS011;26753;45.544;9.232;2024-02-21T04:28:13;86.70;;;45.25;;
40659;SDS011;26753;45.544;9.232;2024-02-21T04:30:39;78.80;;;40.85;;
40659;SDS011;26753;45.544;9.232;2024-02-21T04:33:08;72.63;;;38.92;;
40659;SDS011;26753;45.544;9.232;2024-02-21T04:35:35;73.00;;;38.70;;
40659;SDS011;26753;45.544;9.232;2024-02-21T04:38:01;69.80;;;37.80;;
40659;SDS011;26753;45.544;9.232;2024-02-21T04:40:27;70.18;;;37.40;;
40659;SDS011;26753;45.544;9.232;2024-02-21T04:42:55;71.07;;;36.28;;
40659;SDS011;26753;45.544;9.232;2024-02-21T04:45:22;65.82;;;33.88;;
40659;SDS011;26753;45.544;9.232;2024-02-21T04:47:50;64.90;;;32.67;;
40659;SDS011;26753;45.544;9.232;2024-02-21T04:50:17;58.17;;;31.70;;
40659;SDS011;26753;45.544;9.232;2024-02-21T04:52:43;56.03;;;30.02;;
40659;SDS011;26753;45.544;9.232;2024-02-21T04:55:08;54.05;;;29.20;;
40659;SDS011;26753;45.544;9.232;2024-02-21T04:57:34;56.17;;;29.02;;
40659;SDS011;26753;45.544;9.232;2024-02-21T05:00:00;49.83;;;27.98;;
40659;SDS011;26753;45.544;9.232;2024-02-21T05:02:26;50.20;;;27.95;;
40659;SDS011;26753;45.544;9.232;2024-02-21T05:04:52;48.05;;;25.67;;
40659;SDS011;26753;45.544;9.232;2024-02-21T05:07:21;47.92;;;24.45;;
40659;SDS011;26753;45.544;9.232;2024-02-21T05:09:47;40.17;;;22.20;;
40659;SDS011;26753;45.544;9.232;2024-02-21T05:12:13;38.20;;;20.67;;
40659;SDS011;26753;45.544;9.232;2024-02-21T05:14:39;36.00;;;20.60;;
40659;SDS011;26753;45.544;9.232;2024-02-21T05:17:05;36.35;;;20.50;;
40659;SDS011;26753;45.544;9.232;2024-02-21T05:19:30;38.03;;;21.23;;
40659;SDS011;26753;45.544;9.232;2024-02-21T05:21:56;36.88;;;19.02;;
40659;SDS011;26753;45.544;9.232;2024-02-21T05:24:22;32.20;;;18.15;;
40659;SDS011;26753;45.544;9.232;2024-02-21T05:26:48;31.83;;;17.27;;
40659;SDS011;26753;45.544;9.232;2024-02-21T05:29:13;33.60;;;18.13;;
40659;SDS011;26753;45.544;9.232;2024-02-21T05:34:18;40.13;;;21.00;;
40659;SDS011;26753;45.544;9.232;2024-02-21T05:36:44;41.85;;;22.63;;
40659;SDS011;26753;45.544;9.232;2024-02-21T05:39:11;44.30;;;22.77;;
40659;SDS011;26753;45.544;9.232;2024-02-21T05:41:37;46.55;;;24.20;;
40659;SDS011;26753;45.544;9.232;2024-02-21T05:44:03;47.30;;;24.88;;
40659;SDS011;26753;45.544;9.232;2024-02-21T05:46:29;48.90;;;24.73;;
40659;SDS011;26753;45.544;9.232;2024-02-21T05:48:54;45.22;;;23.65;;
40659;SDS011;26753;45.544;9.232;2024-02-21T05:51:20;49.97;;;24.70;;
40659;SDS011;26753;45.544;9.232;2024-02-21T05:53:49;52.25;;;23.38;;
40659;SDS011;26753;45.544;9.232;2024-02-21T05:56:15;45.70;;;23.63;;
40659;SDS011;26753;45.544;9.232;2024-02-21T05:58:45;43.72;;;23.20;;
40659;SDS011;26753;45.544;9.232;2024-02-21T06:01:11;42.10;;;23.25;;
40659;SDS011;26753;45.544;9.232;2024-02-21T06:03:37;41.13;;;21.25;;
40659;SDS011;26753;45.544;9.232;2024-02-21T06:06:03;39.00;;;21.83;;
40659;SDS011;26753;45.544;9.232;2024-02-21T06:08:32;41.88;;;21.88;;
40659;SDS011;26753;45.544;9.232;2024-02-21T06:10:58;41.42;;;21.58;;
40659;SDS011;26753;45.544;9.232;2024-02-21T06:13:29;38.55;;;20.48;;
40659;SDS011;26753;45.544;9.232;2024-02-21T06:15:58;38.58;;;19.48;;
40659;SDS011;26753;45.544;9.232;2024-02-21T06:18:24;31.58;;;17.77;;
40659;SDS011;26753;45.544;9.232;2024-02-21T06:20:50;27.58;;;16.05;;
40659;SDS011;26753;45.544;9.232;2024-02-21T06:23:16;31.60;;;15.70;;
40659;SDS011;26753;45.544;9.232;2024-02-21T06:25:44;29.38;;;15.93;;
40659;SDS011;26753;45.544;9.232;2024-02-21T06:28:10;28.02;;;15.25;;
40659;SDS011;26753;45.544;9.232;2024-02-21T06:30:35;26.00;;;14.18;;
40659;SDS011;26753;45.544;9.232;2024-02-21T06:33:04;22.70;;;12.52;;
40659;SDS011;26753;45.544;9.232;2024-02-21T06:35:30;25.67;;;12.38;;
40659;SDS011;26753;45.544;9.232;2024-02-21T06:37:56;23.52;;;11.65;;
40659;SDS011;26753;45.544;9.232;2024-02-21T06:40:22;21.70;;;12.48;;
40659;SDS011;26753;45.544;9.232;2024-02-21T06:42:48;26.58;;;12.38;;
40659;SDS011;26753;45.544;9.232;2024-02-21T06:45:14;27.95;;;14.13;;
40659;SDS011;26753;45.544;9.232;2024-02-21T06:47:40;26.50;;;14.95;;
40659;SDS011;26753;45.544;9.232;2024-02-21T06:50:06;27.58;;;14.43;;
40659;SDS011;26753;45.544;9.232;2024-02-21T06:52:33;27.90;;;14.20;;
40659;SDS011;26753;45.544;9.232;2024-02-21T06:54:59;28.65;;;14.23;;
40659;SDS011;26753;45.544;9.232;2024-02-21T06:57:25;26.60;;;13.85;;
40659;SDS011;26753;45.544;9.232;2024-02-21T06:59:51;30.15;;;14.57;;
40659;SDS011;26753;45.544;9.232;2024-02-21T07:02:16;23.15;;;12.85;;
40659;SDS011;26753;45.544;9.232;2024-02-21T07:04:42;25.67;;;13.10;;
40659;SDS011;26753;45.544;9.232;2024-02-21T07:07:08;25.23;;;12.40;;
40659;SDS011;26753;45.544;9.232;2024-02-21T07:09:34;26.58;;;12.88;;
40659;SDS011;26753;45.544;9.232;2024-02-21T07:12:00;24.55;;;12.20;;
40659;SDS011;26753;45.544;9.232;2024-02-21T07:14:27;24.05;;;13.27;;
40659;SDS011;26753;45.544;9.232;2024-02-21T07:16:53;26.95;;;13.23;;
40659;SDS011;26753;45.544;9.232;2024-02-21T07:19:19;26.52;;;12.05;;
40659;SDS011;26753;45.544;9.232;2024-02-21T07:21:45;26.65;;;12.32;;
40659;SDS011;26753;45.544;9.232;2024-02-21T07:24:11;27.08;;;13.02;;
40659;SDS011;26753;45.544;9.232;2024-02-21T07:26:41;30.80;;;13.95;;
40659;SDS011;26753;45.544;9.232;2024-02-21T07:29:07;29.88;;;14.48;;
40659;SDS011;26753;45.544;9.232;2024-02-21T07:31:38;29.30;;;14.68;;
40659;SDS011;26753;45.544;9.232;2024-02-21T07:34:08;27.27;;;14.65;;
40659;SDS011;26753;45.544;9.232;2024-02-21T07:36:34;29.05;;;14.35;;
40659;SDS011;26753;45.544;9.232;2024-02-21T07:38:59;29.50;;;14.07;;
40659;SDS011;26753;45.544;9.232;2024-02-21T07:41:25;28.92;;;14.27;;
40659;SDS011;26753;45.544;9.232;2024-02-21T07:43:51;27.77;;;13.70;;
40659;SDS011;26753;45.544;9.232;2024-02-21T07:46:19;28.58;;;13.63;;
40659;SDS011;26753;45.544;9.232;2024-02-21T07:48:48;24.95;;;13.30;;
40659;SDS011;26753;45.544;9.232;2024-02-21T07:51:14;31.38;;;14.27;;
40659;SDS011;26753;45.544;9.232;2024-02-21T07:53:41;27.90;;;14.13;;
40659;SDS011;26753;45.544;9.232;2024-02-21T07:56:13;31.80;;;14.43;;
40659;SDS011;26753;45.544;9.232;2024-02-21T07:58:41;26.83;;;14.10;;
40659;SDS011;26753;45.544;9.232;2024-02-21T08:01:07;30.90;;;14.20;;
40659;SDS011;26753;45.544;9.232;2024-02-21T08:03:35;24.27;;;13.90;;
40659;SDS011;26753;45.544;9.232;2024-02-21T08:06:02;32.80;;;15.50;;
40659;SDS011;26753;45.544;9.232;2024-02-21T08:08:28;33.38;;;16.20;;
40659;SDS011;26753;45.544;9.232;2024-02-21T08:10:55;31.92;;;16.35;;
40659;SDS011;26753;45.544;9.232;2024-02-21T08:13:21;33.47;;;15.82;;
40659;SDS011;26753;45.544;9.232;2024-02-21T08:15:46;31.90;;;16.10;;
40659;SDS011;26753;45.544;9.232;2024-02-21T08:18:12;33.20;;;16.95;;
40659;SDS011;26753;45.544;9.232;2024-02-21T08:20:41;34.00;;;17.13;;
40659;SDS011;26753;45.544;9.232;2024-02-21T08:23:09;33.33;;;17.42;;
40659;SDS011;26753;45.544;9.232;2024-02-21T08:25:35;30.20;;;17.20;;
40659;SDS011;26753;45.544;9.232;2024-02-21T08:28:01;37.55;;;19.02;;
40659;SDS011;26753;45.544;9.232;2024-02-21T08:30:27;38.55;;;17.60;;
40659;SDS011;26753;45.544;9.232;2024-02-21T08:32:53;32.55;;;18.25;;
40659;SDS011;26753;45.544;9.232;2024-02-21T08:35:20;32.30;;;17.15;;
40659;SDS011;26753;45.544;9.232;2024-02-21T08:37:49;34.08;;;16.95;;
40659;SDS011;26753;45.544;9.232;2024-02-21T08:40:15;36.78;;;18.35;;
40659;SDS011;26753;45.544;9.232;2024-02-21T08:42:46;38.88;;;17.38;;
40659;SDS011;26753;45.544;9.232;2024-02-21T08:45:12;33.35;;;17.27;;
40659;SDS011;26753;45.544;9.232;2024-02-21T08:47:41;36.25;;;17.65;;
40659;SDS011;26753;45.544;9.232;2024-02-21T08:50:16;35.63;;;17.52;;
40659;SDS011;26753;45.544;9.232;2024-02-21T08:52:42;37.70;;;17.90;;
40659;SDS011;26753;45.544;9.232;2024-02-21T08:55:10;37.15;;;17.35;;
40659;SDS011;26753;45.544;9.232;2024-02-21T08:57:36;37.05;;;18.13;;
40659;SDS011;26753;45.544;9.232;2024-02-21T09:00:05;35.38;;;17.75;;
40659;SDS011;26753;45.544;9.232;2024-02-21T09:02:46;29.95;;;18.10;;
40659;SDS011;26753;45.544;9.232;2024-02-21T09:05:13;32.97;;;17.30;;
40659;SDS011;26753;45.544;9.232;2024-02-21T09:07:44;33.20;;;17.63;;
40659;SDS011;26753;45.544;9.232;2024-02-21T09:10:16;31.63;;;17.33;;
40659;SDS011;26753;45.544;9.232;2024-02-21T09:12:44;29.50;;;17.38;;
40659;SDS011;26753;45.544;9.232;2024-02-21T09:15:10;31.70;;;16.58;;
40659;SDS011;26753;45.544;9.232;2024-02-21T09:17:38;30.40;;;16.85;;
40659;SDS011;26753;45.544;9.232;2024-02-21T09:20:04;29.63;;;16.35;;
40659;SDS011;26753;45.544;9.232;2024-02-21T09:22:31;31.45;;;17.77;;
40659;SDS011;26753;45.544;9.232;2024-02-21T09:25:02;30.00;;;16.88;;
40659;SDS011;26753;45.544;9.232;2024-02-21T09:27:28;32.47;;;18.40;;
40659;SDS011;26753;45.544;9.232;2024-02-21T09:29:54;31.85;;;17.15;;
40659;SDS011;26753;45.544;9.232;2024-02-21T09:32:20;30.27;;;16.73;;
40659;SDS011;26753;45.544;9.232;2024-02-21T09:34:45;28.95;;;15.82;;
40659;SDS011;26753;45.544;9.232;2024-02-21T09:37:11;27.08;;;15.18;;
40659;SDS011;26753;45.544;9.232;2024-02-21T09:39:37;31.63;;;16.20;;
40659;SDS011;26753;45.544;9.232;2024-02-21T09:42:20;32.17;;;17.83;;
40659;SDS011;26753;45.544;9.232;2024-02-21T09:44:50;30.48;;;16.58;;
40659;SDS011;26753;45.544;9.232;2024-02-21T09:47:29;27.27;;;16.17;;
40659;SDS011;26753;45.544;9.232;2024-02-21T09:50:20;30.20;;;16.73;;
40659;SDS011;26753;45.544;9.232;2024-02-21T09:52:51;31.33;;;16.13;;
40659;SDS011;26753;45.544;9.232;2024-02-21T09:55:19;29.65;;;16.50;;
40659;SDS011;26753;45.544;9.232;2024-02-21T09:57:46;28.77;;;16.50;;
40659;SDS011;26753;45.544;9.232;2024-02-21T10:00:13;31.38;;;16.90;;
40659;SDS011;26753;45.544;9.232;2024-02-21T10:02:47;29.65;;;16.85;;
40659;SDS011;26753;45.544;9.232;2024-02-21T10:05:14;30.02;;;17.30;;
40659;SDS011;26753;45.544;9.232;2024-02-21T10:07:40;26.13;;;16.13;;
40659;SDS011;26753;45.544;9.232;2024-02-21T10:10:06;31.92;;;17.27;;
40659;SDS011;26753;45.544;9.232;2024-02-21T10:12:33;32.67;;;17.25;;
40659;SDS011;26753;45.544;9.232;2024-02-21T10:17:28;33.50;;;19.25;;
40659;SDS011;26753;45.544;9.232;2024-02-21T10:19:54;38.45;;;21.92;;
40659;SDS011;26753;45.544;9.232;2024-02-21T10:22:34;36.08;;;19.40;;
40659;SDS011;26753;45.544;9.232;2024-02-21T10:25:13;36.42;;;19.60;;
40659;SDS011;26753;45.544;9.232;2024-02-21T10:27:39;38.42;;;20.25;;
40659;SDS011;26753;45.544;9.232;2024-02-21T10:32:33;33.83;;;18.85;;
40659;SDS011;26753;45.544;9.232;2024-02-21T10:35:03;34.88;;;19.27;;
40659;SDS011;26753;45.544;9.232;2024-02-21T10:37:29;34.88;;;19.23;;
40659;SDS011;26753;45.544;9.232;2024-02-21T10:39:56;37.40;;;19.80;;
40659;SDS011;26753;45.544;9.232;2024-02-21T10:42:22;40.13;;;21.00;;
40659;SDS011;26753;45.544;9.232;2024-02-21T10:44:51;39.72;;;22.13;;
40659;SDS011;26753;45.544;9.232;2024-02-21T10:47:17;39.78;;;21.25;;
40659;SDS011;26753;45.544;9.232;2024-02-21T10:49:49;38.05;;;20.60;;
40659;SDS011;26753;45.544;9.232;2024-02-21T10:52:27;35.22;;;20.80;;
40659;SDS011;26753;45.544;9.232;2024-02-21T10:55:20;39.92;;;22.48;;
40659;SDS011;26753;45.544;9.232;2024-02-21T10:57:52;40.88;;;22.70;;
40659;SDS011;26753;45.544;9.232;2024-02-21T11:00:18;36.55;;;22.95;;
40659;SDS011;26753;45.544;9.232;2024-02-21T11:02:44;38.38;;;23.42;;
40659;SDS011;26753;45.544;9.232;2024-02-21T11:05:13;40.90;;;23.17;;
40659;SDS011;26753;45.544;9.232;2024-02-21T11:07:41;38.47;;;23.02;;
40659;SDS011;26753;45.544;9.232;2024-02-21T11:10:19;38.85;;;23.90;;
40659;SDS011;26753;45.544;9.232;2024-02-21T11:12:47;39.22;;;24.83;;
40659;SDS011;26753;45.544;9.232;2024-02-21T11:15:13;41.22;;;24.80;;
40659;SDS011;26753;45.544;9.232;2024-02-21T11:17:40;42.97;;;25.83;;
40659;SDS011;26753;45.544;9.232;2024-02-21T11:20:14;43.80;;;27.85;;
40659;SDS011;26753;45.544;9.232;2024-02-21T11:22:43;48.13;;;26.17;;
40659;SDS011;26753;45.544;9.232;2024-02-21T11:25:09;43.22;;;26.52;;
40659;SDS011;26753;45.544;9.232;2024-02-21T11:27:38;51.72;;;27.55;;
40659;SDS011;26753;45.544;9.232;2024-02-21T11:30:04;41.67;;;26.42;;
40659;SDS011;26753;45.544;9.232;2024-02-21T11:32:31;45.42;;;27.63;;
40659;SDS011;26753;45.544;9.232;2024-02-21T11:35:18;41.67;;;26.98;;
40659;SDS011;26753;45.544;9.232;2024-02-21T11:38:09;44.80;;;27.75;;
40659;SDS011;26753;45.544;9.232;2024-02-21T11:40:45;44.17;;;28.17;;
40659;SDS011;26753;45.544;9.232;2024-02-21T11:43:11;45.38;;;28.55;;
40659;SDS011;26753;45.544;9.232;2024-02-21T11:45:48;46.00;;;28.98;;
40659;SDS011;26753;45.544;9.232;2024-02-21T11:51:26;48.47;;;27.92;;
40659;SDS011;26753;45.544;9.232;2024-02-21T11:53:52;43.67;;;27.00;;
40659;SDS011;26753;45.544;9.232;2024-02-21T11:56:27;46.00;;;29.83;;
40659;SDS011;26753;45.544;9.232;2024-02-21T11:58:58;50.45;;;32.08;;
40659;SDS011;26753;45.544;9.232;2024-02-21T12:01:24;51.00;;;32.88;;
40659;SDS011;26753;45.544;9.232;2024-02-21T12:03:49;50.95;;;33.40;;
40659;SDS011;26753;45.544;9.232;2024-02-21T12:06:16;46.38;;;30.95;;
40659;SDS011;26753;45.544;9.232;2024-02-21T12:08:47;52.95;;;33.17;;
40659;SDS011;26753;45.544;9.232;2024-02-21T12:11:19;39.90;;;27.48;;
40659;SDS011;26753;45.544;9.232;2024-02-21T12:13:47;45.20;;;30.48;;
40659;SDS011;26753;45.544;9.232;2024-02-21T12:16:23;46.05;;;28.75;;
40659;SDS011;26753;45.544;9.232;2024-02-21T12:18:52;50.17;;;33.38;;
40659;SDS011;26753;45.544;9.232;2024-02-21T12:21:30;46.10;;;29.90;;
40659;SDS011;26753;45.544;9.232;2024-02-21T12:23:57;52.13;;;34.83;;
40659;SDS011;26753;45.544;9.232;2024-02-21T12:26:24;45.67;;;29.65;;
40659;SDS011;26753;45.544;9.232;2024-02-21T12:28:50;53.50;;;33.03;;
40659;SDS011;26753;45.544;9.232;2024-02-21T12:31:31;50.88;;;37.00;;
40659;SDS011;26753;45.544;9.232;2024-02-21T12:34:00;42.90;;;30.45;;
40659;SDS011;26753;45.544;9.232;2024-02-21T12:36:25;51.78;;;36.72;;
40659;SDS011;26753;45.544;9.232;2024-02-21T12:38:51;52.38;;;37.03;;
40659;SDS011;26753;45.544;9.232;2024-02-21T12:41:17;54.63;;;37.20;;
40659;SDS011;26753;45.544;9.232;2024-02-21T12:43:43;51.78;;;35.15;;
40659;SDS011;26753;45.544;9.232;2024-02-21T12:46:08;58.10;;;39.65;;
40659;SDS011;26753;45.544;9.232;2024-02-21T12:48:34;58.05;;;42.15;;
40659;SDS011;26753;45.544;9.232;2024-02-21T12:51:00;58.88;;;38.05;;
40659;SDS011;26753;45.544;9.232;2024-02-21T12:53:25;57.33;;;39.75;;
40659;SDS011;26753;45.544;9.232;2024-02-21T12:55:51;50.00;;;36.22;;
40659;SDS011;26753;45.544;9.232;2024-02-21T12:58:17;53.55;;;36.55;;
40659;SDS011;26753;45.544;9.232;2024-02-21T13:00:42;46.55;;;34.50;;
40659;SDS011;26753;45.544;9.232;2024-02-21T13:03:08;54.28;;;35.15;;
40659;SDS011;26753;45.544;9.232;2024-02-21T13:05:35;41.78;;;30.27;;
40659;SDS011;26753;45.544;9.232;2024-02-21T13:08:01;45.30;;;30.50;;
40659;SDS011;26753;45.544;9.232;2024-02-21T13:10:27;53.65;;;38.63;;
40659;SDS011;26753;45.544;9.232;2024-02-21T13:12:53;50.92;;;37.60;;
40659;SDS011;26753;45.544;9.232;2024-02-21T13:15:19;43.42;;;33.25;;
40659;SDS011;26753;45.544;9.232;2024-02-21T13:17:45;40.65;;;30.17;;
40659;SDS011;26753;45.544;9.232;2024-02-21T13:20:11;42.13;;;31.35;;
40659;SDS011;26753;45.544;9.232;2024-02-21T13:22:37;47.67;;;36.25;;
40659;SDS011;26753;45.544;9.232;2024-02-21T13:25:03;41.90;;;31.95;;
40659;SDS011;26753;45.544;9.232;2024-02-21T13:27:32;39.72;;;30.15;;
40659;SDS011;26753;45.544;9.232;2024-02-21T13:29:58;44.17;;;33.45;;
40659;SDS011;26753;45.544;9.232;2024-02-21T13:32:25;43.55;;;32.50;;
40659;SDS011;26753;45.544;9.232;2024-02-21T13:34:51;44.72;;;34.22;;
40659;SDS011;26753;45.544;9.232;2024-02-21T13:37:17;43.22;;;32.92;;
40659;SDS011;26753;45.544;9.232;2024-02-21T13:39:43;40.97;;;31.15;;
40659;SDS011;26753;45.544;9.232;2024-02-21T13:42:09;46.63;;;34.78;;
40659;SDS011;26753;45.544;9.232;2024-02-21T13:44:35;48.15;;;34.50;;
40659;SDS011;26753;45.544;9.232;2024-02-21T13:47:02;43.33;;;33.63;;
40659;SDS011;26753;45.544;9.232;2024-02-21T13:49:29;46.50;;;35.55;;
40659;SDS011;26753;45.544;9.232;2024-02-21T13:51:55;46.35;;;33.58;;
40659;SDS011;26753;45.544;9.232;2024-02-21T13:54:21;39.75;;;31.48;;
40659;SDS011;26753;45.544;9.232;2024-02-21T13:56:47;42.50;;;33.70;;
40659;SDS011;26753;45.544;9.232;2024-02-21T13:59:12;44.33;;;33.47;;
40659;SDS011;26753;45.544;9.232;2024-02-21T14:01:38;45.08;;;35.75;;
40659;SDS011;26753;45.544;9.232;2024-02-21T14:04:04;44.40;;;35.50;;
40659;SDS011;26753;45.544;9.232;2024-02-21T14:06:32;45.40;;;34.97;;
40659;SDS011;26753;45.544;9.232;2024-02-21T14:08:58;43.78;;;33.70;;
40659;SDS011;26753;45.544;9.232;2024-02-21T14:11:24;45.80;;;35.13;;
40659;SDS011;26753;45.544;9.232;2024-02-21T14:13:52;45.45;;;34.63;;
40659;SDS011;26753;45.544;9.232;2024-02-21T14:16:22;40.72;;;32.70;;
40659;SDS011;26753;45.544;9.232;2024-02-21T14:18:48;36.40;;;27.52;;
40659;SDS011;26753;45.544;9.232;2024-02-21T14:21:14;39.80;;;29.73;;
40659;SDS011;26753;45.544;9.232;2024-02-21T14:23:39;42.05;;;32.22;;
40659;SDS011;26753;45.544;9.232;2024-02-21T14:26:05;42.80;;;33.42;;
40659;SDS011;26753;45.544;9.232;2024-02-21T14:28:34;43.22;;;32.40;;
40659;SDS011;26753;45.544;9.232;2024-02-21T14:31:00;38.85;;;28.75;;
40659;SDS011;26753;45.544;9.232;2024-02-21T14:33:26;41.13;;;33.03;;
40659;SDS011;26753;45.544;9.232;2024-02-21T14:35:52;38.47;;;29.67;;